Terminal Aerodrome Forecast
Issued by NWS Cleveland, OH

Home | Current Version | Previous Version | Graphics & Text | Print | Product List | Glossary On
Versions: 1 2 3 4 5 6 7 8 9 10 11 12 13 14 15 16 17 18 19 20 21 22 23 24 25
210
FTUS41 KCLE 262003 AAA
TAFTOL
TAF AMD
KTOL 262003Z 2620/2718 05005KT 6SM -SHRA BR BKN016
     FM262200 20008KT 6SM -SHRA BKN025 OVC120
      TEMPO 2622/2701 3SM -SHRA BKN015
     FM270400 20004KT 5SM BR SCT008 BKN120
     FM270600 23005KT 2SM BR OVC008
     FM271600 24008KT P6SM BKN015=

USA.gov is the U.S. government's official web portal to all federal, state and local government web resources and services.